createdAt,value
2022-08-19T00:03:42.943Z,76.76
2022-08-19T00:08:45.755Z,76.40
2022-08-19T00:13:49.294Z,77.39
2022-08-19T00:18:51.099Z,77.07
2022-08-19T00:23:53.258Z,77.25
2022-08-19T00:28:55.514Z,77.51
2022-08-19T00:33:57.092Z,76.87
2022-08-19T00:38:59.512Z,77.03
2022-08-19T00:44:05.262Z,77.51
2022-08-19T00:49:15.491Z,77.67
2022-08-19T00:54:17.999Z,78.68
2022-08-19T01:00:01.049Z,78.25
2022-08-19T01:04:42.143Z,79.25
2022-08-19T01:09:44.180Z,79.07
2022-08-19T01:14:46.337Z,80.58
2022-08-19T01:19:48.681Z,80.49
2022-08-19T01:24:50.746Z,80.31
2022-08-19T01:29:53.441Z,80.60
2022-08-19T01:34:54.996Z,80.66
2022-08-19T01:39:56.929Z,81.14
2022-08-19T01:44:58.585Z,80.53
2022-08-19T01:50:00.255Z,81.71
2022-08-19T01:55:01.850Z,80.52
2022-08-19T02:00:07.842Z,81.62
2022-08-19T02:05:13.437Z,82.70
2022-08-19T02:10:21.266Z,83.07
2022-08-19T02:15:22.898Z,82.64
2022-08-19T02:20:24.848Z,83.06
2022-08-19T02:25:26.406Z,82.86
2022-08-19T02:30:28.039Z,83.18
2022-08-19T02:35:29.635Z,83.53
2022-08-19T02:40:35.275Z,84.01
2022-08-19T02:45:41.374Z,84.12
2022-08-19T02:50:51.701Z,84.08
2022-08-19T02:55:54.898Z,83.65
2022-08-19T03:00:57.890Z,84.14
2022-08-19T03:06:15.273Z,84.83
2022-08-19T03:11:18.423Z,83.29
2022-08-19T03:16:21.001Z,84.45
2022-08-19T03:21:25.003Z,84.39
2022-08-19T03:26:26.865Z,84.20
2022-08-19T03:31:44.610Z,84.80
2022-08-19T03:36:50.107Z,84.52
2022-08-19T03:42:32.205Z,84.78
2022-08-19T03:47:17.896Z,84.67
2022-08-19T03:52:19.496Z,83.68
2022-08-19T03:57:21.559Z,84.69
2022-08-19T04:02:26.745Z,84.53
2022-08-19T04:07:28.375Z,84.30
2022-08-19T04:12:29.919Z,84.02
2022-08-19T04:17:31.476Z,85.09
2022-08-19T04:22:33.022Z,84.57
2022-08-19T04:27:35.054Z,84.85
2022-08-19T04:32:36.576Z,84.28
2022-08-19T04:37:39.283Z,85.06
2022-08-19T04:42:40.852Z,85.20
2022-08-19T04:47:49.187Z,85.06
2022-08-19T04:53:00.145Z,84.94
2022-08-19T04:58:02.893Z,84.58
2022-08-19T05:03:04.430Z,84.98
2022-08-19T05:08:09.359Z,84.36
2022-08-19T05:13:13.251Z,84.61
2022-08-19T05:18:33.167Z,84.29
2022-08-19T05:23:34.734Z,84.62
2022-08-19T05:28:36.279Z,85.43
2022-08-19T05:33:38.476Z,84.64
2022-08-19T05:38:40.029Z,84.40
2022-08-19T05:43:41.643Z,84.34
2022-08-19T05:48:43.197Z,84.55
2022-08-19T05:53:46.328Z,84.10
2022-08-19T05:58:48.189Z,84.83
2022-08-19T06:03:49.810Z,84.39
2022-08-19T06:08:51.653Z,85.59
2022-08-19T06:13:59.641Z,84.70
2022-08-19T06:19:04.705Z,83.81
2022-08-19T06:24:08.145Z,83.91
2022-08-19T06:29:11.570Z,83.22
2022-08-19T06:34:28.226Z,82.95
2022-08-19T06:39:32.189Z,82.81
2022-08-19T06:44:43.325Z,82.79
2022-08-19T06:49:45.234Z,83.34
2022-08-19T06:54:56.411Z,83.78
2022-08-19T06:59:58.464Z,85.01
2022-08-19T07:05:00.329Z,84.88
2022-08-19T07:10:04.865Z,84.41
2022-08-19T07:15:09.725Z,84.97
2022-08-19T07:20:11.878Z,85.39
2022-08-19T07:25:14.243Z,85.87
2022-08-19T07:30:16.013Z,85.94
2022-08-19T07:35:20.322Z,88.46
2022-08-19T07:40:22.085Z,88.13
2022-08-19T07:45:23.729Z,89.35
2022-08-19T07:50:25.354Z,89.35
2022-08-19T07:55:41.740Z,88.38
2022-08-19T08:00:46.552Z,88.65
2022-08-19T08:06:07.191Z,90.78
2022-08-19T08:11:09.395Z,90.82
2022-08-19T08:16:14.213Z,91.43
2022-08-19T08:21:16.276Z,90.81
2022-08-19T08:26:19.271Z,91.96
2022-08-19T08:31:21.120Z,93.92
2022-08-19T08:36:22.678Z,91.49
2022-08-19T08:41:50.263Z,91.96
2022-08-19T08:46:57.626Z,92.68
2022-08-19T08:52:15.163Z,91.18
2022-08-19T08:58:00.240Z,90.79
2022-08-19T09:03:04.413Z,90.76
2022-08-19T09:08:47.570Z,89.88
2022-08-19T09:14:01.369Z,88.10
2022-08-19T09:19:06.360Z,87.07
2022-08-19T09:24:08.120Z,85.48
2022-08-19T09:29:09.999Z,83.94
2022-08-19T09:34:21.001Z,83.68
2022-08-19T09:39:23.690Z,83.65
2022-08-19T09:44:25.329Z,83.46
2022-08-19T09:49:28.802Z,83.07
2022-08-19T09:54:30.504Z,82.50
2022-08-19T09:59:32.366Z,82.26
2022-08-19T10:04:53.839Z,82.90
2022-08-19T10:09:55.569Z,80.98
2022-08-19T10:14:57.810Z,79.32
2022-08-19T10:19:59.422Z,78.95
2022-08-19T10:25:01.877Z,78.50
2022-08-19T10:30:04.004Z,76.42
2022-08-19T10:35:11.694Z,78.32
2022-08-19T10:40:17.727Z,76.17
2022-08-19T10:45:19.387Z,75.21
2022-08-19T10:50:56.555Z,74.39
2022-08-19T10:56:16.489Z,73.22
2022-08-19T11:01:18.085Z,73.12
2022-08-19T11:06:20.585Z,72.91
2022-08-19T11:11:22.817Z,73.07
2022-08-19T11:16:27.606Z,73.86
2022-08-19T11:21:49.657Z,74.94
2022-08-19T11:26:53.792Z,75.10
2022-08-19T11:31:55.881Z,74.32
2022-08-19T11:37:00.634Z,73.85
2022-08-19T11:42:25.445Z,73.21
2022-08-19T11:47:27.184Z,74.04
2022-08-19T11:52:30.700Z,72.92
2022-08-19T11:57:32.585Z,74.55
2022-08-19T12:02:34.559Z,74.49
2022-08-19T12:07:36.857Z,74.46
2022-08-19T12:12:43.270Z,74.87
2022-08-19T12:17:44.919Z,75.48
2022-08-19T12:22:46.964Z,75.91
2022-08-19T12:27:56.739Z,75.98
2022-08-19T12:32:58.949Z,74.75
2022-08-19T12:38:02.675Z,75.32
2022-08-19T12:43:05.154Z,74.91
2022-08-19T12:48:33.506Z,74.78
2022-08-19T12:53:31.441Z,75.14
2022-08-19T12:58:35.416Z,74.37
2022-08-19T13:03:40.586Z,73.53
2022-08-19T13:08:42.818Z,71.96
2022-08-19T13:13:51.215Z,73.35
2022-08-19T13:18:52.928Z,74.03
2022-08-19T13:23:55.207Z,73.79
2022-08-19T13:29:15.538Z,74.50
2022-08-19T13:34:20.113Z,75.83
2022-08-19T13:39:23.941Z,75.51
2022-08-19T13:44:25.695Z,75.15
2022-08-19T13:49:31.913Z,74.98
2022-08-19T13:54:33.640Z,74.93
2022-08-19T13:59:35.458Z,75.25
2022-08-19T14:04:38.465Z,76.11
2022-08-19T14:09:40.122Z,76.56
2022-08-19T14:14:41.727Z,76.35
2022-08-19T14:19:43.869Z,77.21
2022-08-19T14:24:51.113Z,76.67
2022-08-19T14:29:53.444Z,76.77
2022-08-19T14:34:55.539Z,75.80
2022-08-19T14:39:57.247Z,77.00
2022-08-19T14:45:00.351Z,76.92
2022-08-19T14:50:05.150Z,78.07
2022-08-19T14:55:07.456Z,77.86
2022-08-19T15:00:16.507Z,78.39
2022-08-19T15:05:18.401Z,78.22
2022-08-19T15:10:20.077Z,77.71
2022-08-19T15:15:22.976Z,78.00
2022-08-19T15:20:25.110Z,77.83
2022-08-19T15:25:27.991Z,78.75
2022-08-19T15:30:29.899Z,78.74
2022-08-19T15:35:31.450Z,78.78
2022-08-19T15:40:33.011Z,79.58
2022-08-19T15:45:34.619Z,79.51
2022-08-19T15:50:36.321Z,78.59
2022-08-19T15:55:43.971Z,78.09
2022-08-19T16:01:14.494Z,77.44
2022-08-19T16:06:27.998Z,77.35
2022-08-19T16:11:32.668Z,77.45
2022-08-19T16:16:34.586Z,77.78
2022-08-19T16:21:37.086Z,77.68
2022-08-19T16:26:40.768Z,77.64
2022-08-19T16:31:44.168Z,77.35
2022-08-19T16:36:45.761Z,76.77
2022-08-19T16:41:47.428Z,77.09
2022-08-19T16:46:58.522Z,76.82
2022-08-19T16:52:02.537Z,76.75
2022-08-19T16:57:06.690Z,77.13
2022-08-19T17:02:14.499Z,76.42
2022-08-19T17:07:16.059Z,76.86
2022-08-19T17:12:17.720Z,76.53
2022-08-19T17:17:19.766Z,76.98
2022-08-19T17:22:21.345Z,77.34
2022-08-19T17:27:23.197Z,76.75
2022-08-19T17:32:25.059Z,76.73
2022-08-19T17:37:28.137Z,77.31
2022-08-19T17:42:29.866Z,77.48
2022-08-19T17:47:31.454Z,77.12
2022-08-19T17:52:33.344Z,77.26
2022-08-19T17:57:35.356Z,77.16
2022-08-19T18:02:48.030Z,77.46
2022-08-19T18:07:53.278Z,77.53
2022-08-19T18:12:55.849Z,77.70
2022-08-19T18:17:58.264Z,77.61
2022-08-19T18:23:44.078Z,77.74
2022-08-19T18:28:23.888Z,78.09
2022-08-19T18:33:25.869Z,77.92
2022-08-19T18:38:46.139Z,77.96
2022-08-19T18:44:06.997Z,78.49
2022-08-19T18:49:10.378Z,78.96
2022-08-19T18:54:12.583Z,79.91
2022-08-19T18:59:14.259Z,80.01
2022-08-19T19:04:17.700Z,79.74
2022-08-19T19:09:21.786Z,79.62
2022-08-19T19:14:50.641Z,79.56
2022-08-19T19:19:52.230Z,79.86
2022-08-19T19:24:56.734Z,80.78
2022-08-19T19:30:14.252Z,79.80
2022-08-19T19:35:15.805Z,80.04
2022-08-19T19:40:17.469Z,80.17
2022-08-19T19:45:19.114Z,79.38
2022-08-19T19:50:20.746Z,79.22
2022-08-19T19:55:22.400Z,79.98
2022-08-19T20:00:25.267Z,79.73
2022-08-19T20:05:26.951Z,79.72
2022-08-19T20:10:28.591Z,79.47
2022-08-19T20:15:32.131Z,79.65
2022-08-19T20:20:34.234Z,79.25
2022-08-19T20:25:38.124Z,79.34
2022-08-19T20:30:46.627Z,79.05
2022-08-19T20:35:49.720Z,79.93
2022-08-19T20:40:52.721Z,81.05
2022-08-19T20:45:55.731Z,81.11
2022-08-19T20:50:57.530Z,80.39
2022-08-19T20:55:59.879Z,81.02
2022-08-19T21:01:03.278Z,80.39
2022-08-19T21:06:05.208Z,80.32
2022-08-19T21:11:07.524Z,80.08
2022-08-19T21:16:09.317Z,80.25
2022-08-19T21:21:11.113Z,79.97
2022-08-19T21:26:12.673Z,80.63
2022-08-19T21:31:15.788Z,80.36
2022-08-19T21:36:17.530Z,80.05
2022-08-19T21:41:19.142Z,80.18
2022-08-19T21:46:20.832Z,80.15
2022-08-19T21:51:22.411Z,80.02
2022-08-19T21:56:24.421Z,80.04
2022-08-19T22:01:27.123Z,81.15
2022-08-19T22:06:28.885Z,80.55
2022-08-19T22:11:30.508Z,80.94
2022-08-19T22:16:32.695Z,80.56
2022-08-19T22:21:40.258Z,81.24
2022-08-19T22:26:42.236Z,80.67
2022-08-19T22:31:44.803Z,81.39
2022-08-19T22:36:46.453Z,81.32
2022-08-19T22:41:48.664Z,81.00
2022-08-19T22:46:50.263Z,80.89
2022-08-19T22:52:10.521Z,81.78
2022-08-19T22:57:12.216Z,81.57
2022-08-19T23:02:24.143Z,82.08
2022-08-19T23:07:26.187Z,82.88
2022-08-19T23:12:30.763Z,81.85
2022-08-19T23:17:32.350Z,82.43
2022-08-19T23:22:35.115Z,82.61
2022-08-19T23:27:55.257Z,82.53
2022-08-19T23:33:12.248Z,82.34
2022-08-19T23:38:14.465Z,82.86
2022-08-19T23:43:20.863Z,82.65
2022-08-19T23:48:28.353Z,82.85
2022-08-19T23:53:30.392Z,82.26
2022-08-19T23:58:31.959Z,82.12
